createdAt,value
2022-09-15T00:00:00.728Z,92.3
2022-09-15T00:01:00.864Z,92.3
2022-09-15T00:02:01.106Z,92.2
2022-09-15T00:03:01.201Z,92.2
2022-09-15T00:04:00.294Z,92.3
2022-09-15T00:05:00.455Z,92.3
2022-09-15T00:06:00.608Z,92.3
2022-09-15T00:07:00.749Z,92.4
2022-09-15T00:08:00.893Z,92.4
2022-09-15T00:09:01.051Z,92.4
2022-09-15T00:10:01.183Z,92.4
2022-09-15T00:11:00.364Z,92.3
2022-09-15T00:12:00.498Z,92.4
2022-09-15T00:13:00.639Z,92.3
2022-09-15T00:14:00.787Z,92.3
2022-09-15T00:15:00.929Z,92.3
2022-09-15T00:16:01.079Z,92.4
2022-09-15T00:17:01.359Z,92.3
2022-09-15T00:18:00.362Z,92.4
2022-09-15T00:19:00.519Z,92.4
2022-09-15T00:20:00.684Z,92.3
2022-09-15T00:21:00.801Z,92.4
2022-09-15T00:22:00.959Z,92.3
2022-09-15T00:23:01.100Z,92.3
2022-09-15T00:24:01.256Z,92.3
2022-09-15T00:25:00.415Z,92.3
2022-09-15T00:26:00.554Z,92.3
2022-09-15T00:27:00.695Z,92.3
2022-09-15T00:28:00.952Z,92.3
2022-09-15T00:29:00.996Z,92.2
2022-09-15T00:30:01.174Z,92.2
2022-09-15T00:31:00.370Z,92.2
2022-09-15T00:32:00.439Z,92.3
2022-09-15T00:33:00.576Z,92.2
2022-09-15T00:34:00.720Z,92.2
2022-09-15T00:35:00.886Z,92.2
2022-09-15T00:36:01.013Z,92.2
2022-09-15T00:37:01.153Z,92.3
2022-09-15T00:38:00.296Z,92.2
2022-09-15T00:39:00.444Z,92.2
2022-09-15T00:40:00.664Z,92.3
2022-09-15T00:41:00.799Z,92.2
2022-09-15T00:42:00.902Z,92.2
2022-09-15T00:43:01.042Z,92.1
2022-09-15T00:44:01.205Z,92.1
2022-09-15T00:45:00.340Z,92.2
2022-09-15T00:46:00.561Z,92.2
2022-09-15T00:47:18.251Z,92.2
2022-09-15T00:48:00.781Z,92.1
2022-09-15T00:49:00.923Z,92.2
2022-09-15T00:50:01.066Z,92.1
2022-09-15T00:51:01.245Z,92.1
2022-09-15T00:52:00.365Z,92.1
2022-09-15T00:53:00.518Z,92.1
2022-09-15T00:54:00.660Z,92.2
2022-09-15T00:55:00.815Z,92.3
2022-09-15T00:56:00.983Z,92.3
2022-09-15T00:57:01.106Z,92.3
2022-09-15T00:58:01.249Z,92.3
2022-09-15T00:59:00.386Z,92.3
2022-09-15T01:00:00.540Z,92.2
2022-09-15T01:01:00.840Z,92.1
2022-09-15T01:02:00.903Z,92.1
2022-09-15T01:03:01.090Z,92.1
2022-09-15T01:04:01.136Z,92.3
2022-09-15T01:05:00.273Z,92.3
2022-09-15T01:06:00.431Z,92.3
2022-09-15T01:07:00.579Z,92.3
2022-09-15T01:08:00.735Z,92.3
2022-09-15T01:09:00.861Z,92.2
2022-09-15T01:10:01.018Z,92.2
2022-09-15T01:11:01.137Z,92.2
2022-09-15T01:12:00.276Z,92.2
2022-09-15T01:13:00.428Z,92.2
2022-09-15T01:14:00.568Z,92.3
2022-09-15T01:15:00.748Z,92.3
2022-09-15T01:16:00.914Z,92.3
2022-09-15T01:17:01.008Z,92.4
2022-09-15T01:18:01.144Z,92.5
2022-09-15T01:19:00.336Z,92.5
2022-09-15T01:20:00.452Z,92.5
2022-09-15T01:21:00.617Z,92.6
2022-09-15T01:22:00.734Z,92.6
2022-09-15T01:23:00.886Z,92.7
2022-09-15T01:24:01.025Z,92.7
2022-09-15T01:25:01.174Z,92.6
2022-09-15T01:26:00.340Z,92.5
2022-09-15T01:27:00.460Z,92.5
2022-09-15T01:28:00.615Z,92.5
2022-09-15T01:29:00.753Z,92.5
2022-09-15T01:30:00.906Z,92.5
2022-09-15T01:31:01.073Z,92.5
2022-09-15T01:32:01.281Z,92.5
2022-09-15T01:33:00.349Z,92.6
2022-09-15T01:34:00.495Z,92.6
2022-09-15T01:35:00.646Z,92.6
2022-09-15T01:36:00.788Z,92.6
2022-09-15T01:37:00.979Z,92.5
2022-09-15T01:38:01.100Z,92.3
2022-09-15T01:39:01.252Z,92.3
2022-09-15T01:40:00.418Z,92.4
2022-09-15T01:41:00.550Z,92.5
2022-09-15T01:42:00.716Z,92.5
2022-09-15T01:43:00.885Z,92.6
2022-09-15T01:44:01.013Z,92.6
2022-09-15T01:45:01.160Z,92.6
2022-09-15T01:46:00.370Z,92.6
2022-09-15T01:47:00.457Z,92.6
2022-09-15T01:48:00.640Z,92.7
2022-09-15T01:49:00.741Z,92.7
2022-09-15T01:50:00.889Z,92.5
2022-09-15T01:51:01.029Z,92.4
2022-09-15T01:52:01.187Z,92.3
2022-09-15T01:53:00.341Z,92.4
2022-09-15T01:54:00.510Z,92.4
2022-09-15T01:55:00.635Z,92.3
2022-09-15T01:56:00.778Z,92.4
2022-09-15T01:57:00.932Z,92.4
2022-09-15T01:58:01.086Z,92.5
2022-09-15T01:59:01.251Z,92.6
2022-09-15T02:00:00.359Z,92.7
2022-09-15T02:01:00.553Z,92.6
2022-09-15T02:02:00.714Z,92.5
2022-09-15T02:03:00.803Z,92.5
2022-09-15T02:04:00.969Z,92.3
2022-09-15T02:05:01.097Z,92.4
2022-09-15T02:06:01.236Z,92.5
2022-09-15T02:07:00.384Z,92.5
2022-09-15T02:08:00.517Z,92.6
2022-09-15T02:09:00.683Z,92.7
2022-09-15T02:10:00.821Z,92.6
2022-09-15T02:11:00.973Z,92.4
2022-09-15T02:12:01.142Z,92.3
2022-09-15T02:13:00.273Z,92.3
2022-09-15T02:14:00.450Z,92.4
2022-09-15T02:15:00.567Z,92.3
2022-09-15T02:16:00.767Z,92.3
2022-09-15T02:17:00.861Z,92.3
2022-09-15T02:18:01.009Z,92.3
2022-09-15T02:19:01.172Z,92.3
2022-09-15T02:20:00.342Z,92.2
2022-09-15T02:21:00.437Z,92.2
2022-09-15T02:22:00.582Z,92.1
2022-09-15T02:23:00.734Z,92.1
2022-09-15T02:24:00.913Z,92.1
2022-09-15T02:25:01.029Z,92.1
2022-09-15T02:26:01.163Z,92.1
2022-09-15T02:27:00.315Z,92.2
2022-09-15T02:28:00.457Z,92.3
2022-09-15T02:29:00.644Z,92.2
2022-09-15T02:30:00.754Z,92.3
2022-09-15T02:31:00.898Z,92.2
2022-09-15T02:32:05.097Z,92.2
2022-09-15T02:33:01.198Z,92.3
2022-09-15T02:34:00.354Z,92.5
2022-09-15T02:35:00.557Z,92.5
2022-09-15T02:36:00.625Z,92.4
2022-09-15T02:37:00.776Z,92.4
2022-09-15T02:38:00.920Z,92.3
2022-09-15T02:39:01.069Z,92.3
2022-09-15T02:40:01.253Z,92.3
2022-09-15T02:41:00.362Z,92.3
2022-09-15T02:42:00.508Z,92.4
2022-09-15T02:43:00.661Z,92.4
2022-09-15T02:44:00.813Z,92.5
2022-09-15T02:45:00.985Z,92.6
2022-09-15T02:46:01.177Z,92.6
2022-09-15T02:47:00.259Z,92.7
2022-09-15T02:48:00.404Z,92.8
2022-09-15T02:49:00.547Z,92.8
2022-09-15T02:50:00.712Z,92.9
2022-09-15T02:51:00.851Z,92.8
2022-09-15T02:52:01.020Z,92.7
2022-09-15T02:53:01.135Z,92.6
2022-09-15T02:54:00.287Z,92.6
2022-09-15T02:55:00.435Z,92.5
2022-09-15T02:56:00.589Z,92.5
2022-09-15T02:57:00.756Z,92.6
2022-09-15T02:58:00.885Z,92.5
2022-09-15T02:59:01.034Z,92.5
2022-09-15T03:00:01.180Z,92.5
2022-09-15T03:01:00.408Z,92.5
2022-09-15T03:02:00.598Z,92.6
2022-09-15T03:03:00.622Z,92.6
2022-09-15T03:04:00.775Z,92.7
2022-09-15T03:05:00.924Z,92.7
2022-09-15T03:06:01.067Z,92.7
2022-09-15T03:07:01.233Z,92.7
2022-09-15T03:08:00.356Z,92.6
2022-09-15T03:09:00.507Z,92.5
2022-09-15T03:10:00.656Z,92.4
2022-09-15T03:11:00.801Z,92.3
2022-09-15T03:12:00.977Z,92.2
2022-09-15T03:13:01.107Z,92.3
2022-09-15T03:14:01.245Z,92.4
2022-09-15T03:15:00.383Z,92.3
2022-09-15T03:16:00.601Z,92.2
2022-09-15T03:17:00.686Z,92.2
2022-09-15T03:18:00.825Z,92.2
2022-09-15T03:19:00.991Z,92.1
2022-09-15T03:20:01.138Z,92.1
2022-09-15T03:21:00.266Z,92.1
2022-09-15T03:22:00.411Z,92.2
2022-09-15T03:23:00.557Z,92.3
2022-09-15T03:24:00.730Z,92.4
2022-09-15T03:25:00.888Z,92.4
2022-09-15T03:26:01.014Z,92.3
2022-09-15T03:27:01.155Z,92.2
2022-09-15T03:28:00.293Z,92.2
2022-09-15T03:29:00.466Z,92.2
2022-09-15T03:30:00.603Z,92.2
2022-09-15T03:31:00.736Z,92.3
2022-09-15T03:32:00.953Z,92.4
2022-09-15T03:33:01.015Z,92.4
2022-09-15T03:34:01.211Z,92.4
2022-09-15T03:35:00.322Z,92.4
2022-09-15T03:36:00.425Z,92.4
2022-09-15T03:37:00.572Z,92.4
2022-09-15T03:38:00.711Z,92.3
2022-09-15T03:39:00.905Z,92.3
2022-09-15T03:40:01.079Z,92.3
2022-09-15T03:41:01.148Z,92.3
2022-09-15T03:42:00.285Z,92.3
2022-09-15T03:43:00.464Z,92.1
2022-09-15T03:44:00.594Z,92.1
2022-09-15T03:45:00.754Z,92.1
2022-09-15T03:46:01.018Z,92.2
2022-09-15T03:47:01.025Z,92.5
2022-09-15T03:48:01.191Z,92.5
2022-09-15T03:49:00.325Z,92.6
2022-09-15T03:50:00.476Z,92.6
2022-09-15T03:51:00.637Z,92.7
2022-09-15T03:52:00.765Z,92.5
2022-09-15T03:53:00.907Z,92.4
2022-09-15T03:54:01.094Z,92.4
2022-09-15T03:55:01.212Z,92.4
2022-09-15T03:56:00.376Z,92.2
2022-09-15T03:57:00.529Z,92.2
2022-09-15T03:58:00.669Z,92.3
2022-09-15T03:59:00.807Z,92.4
2022-09-15T04:00:00.965Z,92.5
2022-09-15T04:01:01.204Z,92.3
2022-09-15T04:02:01.353Z,92.3
2022-09-15T04:03:00.400Z,92.4
2022-09-15T04:04:00.551Z,92.3
2022-09-15T04:05:00.702Z,92.3
2022-09-15T04:06:00.839Z,92.4
2022-09-15T04:07:01.011Z,92.5
2022-09-15T04:08:01.135Z,92.4
2022-09-15T04:09:00.280Z,92.5
2022-09-15T04:10:00.424Z,92.5
2022-09-15T04:11:00.576Z,92.4
2022-09-15T04:12:00.741Z,92.5
2022-09-15T04:13:00.876Z,92.5
2022-09-15T04:14:01.016Z,92.5
2022-09-15T04:15:01.180Z,92.4
2022-09-15T04:16:00.357Z,92.3
2022-09-15T04:17:00.502Z,92.2
2022-09-15T04:18:00.615Z,92.2
2022-09-15T04:19:00.778Z,92.2
2022-09-15T04:20:00.940Z,92.2
2022-09-15T04:21:01.076Z,92.3
2022-09-15T04:22:01.274Z,92.4
2022-09-15T04:23:00.375Z,92.5
2022-09-15T04:24:00.533Z,92.5
2022-09-15T04:25:00.673Z,92.6
2022-09-15T04:26:00.830Z,92.6
2022-09-15T04:27:00.970Z,92.6
2022-09-15T04:28:01.133Z,92.7
2022-09-15T04:29:04.206Z,92.7
2022-09-15T04:30:00.397Z,92.8
2022-09-15T04:31:00.636Z,92.8
2022-09-15T04:32:00.703Z,92.8
2022-09-15T04:33:00.871Z,92.8
2022-09-15T04:34:00.995Z,92.8
2022-09-15T04:35:01.144Z,92.9
2022-09-15T04:36:00.289Z,92.8
2022-09-15T04:37:00.440Z,92.8
2022-09-15T04:38:00.601Z,92.8
2022-09-15T04:39:00.740Z,92.8
2022-09-15T04:40:00.954Z,92.8
2022-09-15T04:41:01.022Z,92.8
2022-09-15T04:42:01.166Z,92.8
2022-09-15T04:43:00.316Z,92.8
2022-09-15T04:44:00.464Z,92.8
2022-09-15T04:45:00.640Z,92.9
2022-09-15T04:46:00.754Z,92.9
2022-09-15T04:47:00.954Z,92.9
2022-09-15T04:48:01.059Z,92.9
2022-09-15T04:49:01.221Z,92.8
2022-09-15T04:50:00.357Z,92.7
2022-09-15T04:51:00.494Z,92.5
2022-09-15T04:52:00.642Z,92.4
2022-09-15T04:53:00.791Z,92.3
2022-09-15T04:54:00.972Z,92.2
2022-09-15T04:55:01.092Z,92.2
2022-09-15T04:56:01.240Z,92.2
2022-09-15T04:57:00.389Z,92.4
2022-09-15T04:58:00.527Z,92.5
2022-09-15T04:59:03.971Z,92.4
2022-09-15T05:00:00.852Z,92.3
2022-09-15T05:01:01.013Z,92.3
2022-09-15T05:02:01.194Z,92.2
2022-09-15T05:03:00.257Z,92.2
2022-09-15T05:04:00.400Z,92.3
2022-09-15T05:05:00.561Z,92.3
2022-09-15T05:06:00.699Z,92.2
2022-09-15T05:07:00.854Z,92.2
2022-09-15T05:08:01.008Z,92.4
2022-09-15T05:09:01.172Z,92.4
2022-09-15T05:10:00.310Z,92.4
2022-09-15T05:11:00.443Z,92.5
2022-09-15T05:12:00.593Z,92.5
2022-09-15T05:13:00.745Z,92.4
2022-09-15T05:14:00.894Z,92.4
2022-09-15T05:15:01.062Z,92.5
2022-09-15T05:16:01.240Z,92.5
2022-09-15T05:17:00.330Z,92.6
2022-09-15T05:18:00.483Z,92.6
2022-09-15T05:19:00.649Z,92.7
2022-09-15T05:20:00.771Z,92.6
2022-09-15T05:21:00.917Z,92.6
2022-09-15T05:22:01.068Z,92.6
2022-09-15T05:23:01.227Z,92.7
2022-09-15T05:24:00.395Z,92.7
2022-09-15T05:25:00.526Z,92.7
2022-09-15T05:26:00.675Z,92.7
2022-09-15T05:27:00.819Z,92.8
2022-09-15T05:28:00.963Z,92.7
2022-09-15T05:29:01.122Z,92.8
2022-09-15T05:30:31.723Z,92.7
2022-09-15T05:31:00.443Z,92.7
2022-09-15T05:32:00.531Z,92.7
2022-09-15T05:33:00.671Z,92.7
2022-09-15T05:34:00.823Z,92.7
2022-09-15T05:35:00.989Z,92.7
2022-09-15T05:36:01.125Z,92.7
2022-09-15T05:37:00.276Z,92.7
2022-09-15T05:38:00.423Z,92.7
2022-09-15T05:39:00.573Z,92.7
2022-09-15T05:40:03.161Z,92.7
2022-09-15T05:41:00.856Z,92.7
2022-09-15T05:42:01.013Z,92.7
2022-09-15T05:43:01.168Z,92.8
2022-09-15T05:44:00.309Z,92.8
2022-09-15T05:45:00.487Z,92.7
2022-09-15T05:46:00.609Z,92.5
2022-09-15T05:47:00.845Z,92.4
2022-09-15T05:48:00.904Z,92.3
2022-09-15T05:49:01.042Z,92.1
2022-09-15T05:50:01.209Z,92
2022-09-15T05:51:00.353Z,92
2022-09-15T05:52:00.484Z,92.1
2022-09-15T05:53:00.654Z,92.2
2022-09-15T05:54:00.779Z,92.4
2022-09-15T05:55:00.927Z,92.5
2022-09-15T05:56:01.074Z,92.4
2022-09-15T05:57:01.227Z,92.5
2022-09-15T05:58:00.374Z,92.3
2022-09-15T05:59:00.522Z,92.3
2022-09-15T06:00:00.661Z,92.2
2022-09-15T06:01:00.807Z,92.1
2022-09-15T06:02:01.000Z,92.1
2022-09-15T06:03:01.230Z,92.1
2022-09-15T06:04:01.250Z,92.1
2022-09-15T06:05:00.390Z,92.1
2022-09-15T06:06:00.533Z,92.1
2022-09-15T06:07:00.681Z,92.1
2022-09-15T06:08:00.842Z,92
2022-09-15T06:09:01.243Z,91.9
2022-09-15T06:10:01.115Z,91.9
2022-09-15T06:11:01.257Z,92.1
2022-09-15T06:12:00.395Z,92.2
2022-09-15T06:13:00.539Z,92.3
2022-09-15T06:14:00.698Z,92.4
2022-09-15T06:15:00.853Z,92.3
2022-09-15T06:16:01.052Z,92.3
2022-09-15T06:17:01.136Z,92.2
2022-09-15T06:18:00.273Z,92
2022-09-15T06:19:00.438Z,92
2022-09-15T06:20:00.567Z,91.7
2022-09-15T06:21:00.721Z,91.6
2022-09-15T06:22:00.864Z,91.7
2022-09-15T06:23:01.012Z,91.7
2022-09-15T06:24:01.173Z,91.6
2022-09-15T06:25:00.299Z,91.3
2022-09-15T06:26:00.446Z,91.1
2022-09-15T06:27:00.590Z,91.3
2022-09-15T06:28:00.745Z,91.3
2022-09-15T06:29:00.923Z,91.1
2022-09-15T06:30:01.021Z,91
2022-09-15T06:31:01.169Z,90.8
2022-09-15T06:32:00.384Z,90.7
2022-09-15T06:33:00.470Z,91
2022-09-15T06:34:00.647Z,91.2
2022-09-15T06:35:00.800Z,91.4
2022-09-15T06:36:00.917Z,91.5
2022-09-15T06:37:01.071Z,91.6
2022-09-15T06:38:01.222Z,91.7
2022-09-15T06:39:00.372Z,91.8
2022-09-15T06:40:00.579Z,91.8
2022-09-15T06:41:00.656Z,91.9
2022-09-15T06:42:02.727Z,91.7
2022-09-15T06:43:00.951Z,91.4
2022-09-15T06:44:01.103Z,91.1
2022-09-15T06:45:01.273Z,91.3
2022-09-15T06:46:00.466Z,91.5
2022-09-15T06:47:00.547Z,91.6
2022-09-15T06:48:22.918Z,91.6
2022-09-15T06:49:00.834Z,91.7
2022-09-15T06:50:01.004Z,91.7
2022-09-15T06:51:01.132Z,91.7
2022-09-15T06:52:00.268Z,91.7
2022-09-15T06:53:00.412Z,91.7
2022-09-15T06:54:00.565Z,91.7
2022-09-15T06:55:00.742Z,91.5
2022-09-15T06:56:00.856Z,91.5
2022-09-15T06:57:01.012Z,91.5
2022-09-15T06:58:01.140Z,91.5
2022-09-15T06:59:00.300Z,91.5
2022-09-15T07:00:00.446Z,91.4
2022-09-15T07:01:00.581Z,91.4
2022-09-15T07:02:04.904Z,91
2022-09-15T07:03:01.004Z,91
2022-09-15T07:04:01.079Z,91.1
2022-09-15T07:05:01.188Z,91.2
2022-09-15T07:06:00.307Z,91.2
2022-09-15T07:07:00.457Z,91.3
2022-09-15T07:08:00.606Z,91.2
2022-09-15T07:09:00.746Z,91.2
2022-09-15T07:10:00.930Z,91.3
2022-09-15T07:11:01.046Z,91.3
2022-09-15T07:12:01.194Z,91.4
2022-09-15T07:13:00.337Z,91.2
2022-09-15T07:14:00.482Z,91.1
2022-09-15T07:15:00.653Z,90.5
2022-09-15T07:16:00.818Z,90.6
2022-09-15T07:17:00.919Z,90.6
2022-09-15T07:18:01.086Z,90.8
2022-09-15T07:19:01.198Z,90.3
2022-09-15T07:20:00.375Z,89.2
2022-09-15T07:21:00.503Z,88.7
2022-09-15T07:22:00.649Z,88.9
2022-09-15T07:23:00.799Z,89.2
2022-09-15T07:24:05.112Z,89.3
2022-09-15T07:25:01.100Z,89.5
2022-09-15T07:26:01.234Z,90.1
2022-09-15T07:27:00.369Z,90
2022-09-15T07:28:00.517Z,89.3
2022-09-15T07:29:00.671Z,89.2
2022-09-15T07:30:00.826Z,89.3
2022-09-15T07:31:00.982Z,89.1
2022-09-15T07:32:01.195Z,89.1
2022-09-15T07:34:00.363Z,88.9
2022-09-15T07:35:00.499Z,89
2022-09-15T07:36:00.665Z,89.1
2022-09-15T07:37:00.802Z,88.1
2022-09-15T07:38:00.948Z,87.9
2022-09-15T07:39:01.101Z,87.6
2022-09-15T07:40:01.363Z,86.8
2022-09-15T07:41:00.426Z,87
2022-09-15T07:42:00.544Z,86.8
2022-09-15T07:43:00.693Z,87.6
2022-09-15T07:44:00.850Z,88.1
2022-09-15T07:45:00.995Z,88.4
2022-09-15T07:46:01.202Z,88.3
2022-09-15T07:47:00.293Z,88.5
2022-09-15T07:48:00.440Z,88.3
2022-09-15T07:49:00.599Z,88.3
2022-09-15T07:50:00.728Z,88.2
2022-09-15T07:51:00.912Z,88.5
2022-09-15T07:52:01.031Z,87.6
2022-09-15T07:53:01.180Z,87.3
2022-09-15T07:54:00.341Z,87.2
2022-09-15T07:55:00.461Z,87.7
2022-09-15T07:56:00.620Z,88
2022-09-15T07:57:00.760Z,87.1
2022-09-15T07:58:00.906Z,85.9
2022-09-15T07:59:01.037Z,85.8
2022-09-15T08:00:01.204Z,86.8
2022-09-15T08:01:00.415Z,86.2
2022-09-15T08:02:00.526Z,86.7
2022-09-15T08:03:00.634Z,87.5
2022-09-15T08:04:00.773Z,87.8
2022-09-15T08:05:00.952Z,87.8
2022-09-15T08:06:01.094Z,87.8
2022-09-15T08:07:01.210Z,87.9
2022-09-15T08:08:00.362Z,88
2022-09-15T08:09:01.078Z,88
2022-09-15T08:10:00.653Z,88.2
2022-09-15T08:11:00.820Z,88.4
2022-09-15T08:12:00.942Z,87.5
2022-09-15T08:13:01.097Z,86.1
2022-09-15T08:14:01.229Z,84.8
2022-09-15T08:15:00.371Z,84.3
2022-09-15T08:16:00.571Z,84.2
2022-09-15T08:17:00.677Z,85.1
2022-09-15T08:18:00.810Z,85.3
2022-09-15T08:19:00.973Z,85.9
2022-09-15T08:20:01.117Z,85.8
2022-09-15T08:21:00.255Z,84.7
2022-09-15T08:22:00.415Z,85.2
2022-09-15T08:23:00.563Z,84.5
2022-09-15T08:24:00.709Z,85.7
2022-09-15T08:25:00.848Z,85.2
2022-09-15T08:26:01.021Z,83.4
2022-09-15T08:27:01.138Z,82.6
2022-09-15T08:28:00.285Z,82.7
2022-09-15T08:29:00.437Z,80.9
2022-09-15T08:30:00.582Z,80.7
2022-09-15T08:31:00.759Z,81
2022-09-15T08:32:00.882Z,82.5
2022-09-15T08:33:01.024Z,84
2022-09-15T08:34:01.194Z,84.7
2022-09-15T08:35:00.320Z,84.9
2022-09-15T08:36:00.470Z,83
2022-09-15T08:37:00.609Z,82.1
2022-09-15T08:38:00.757Z,83.1
2022-09-15T08:39:00.911Z,83.5
2022-09-15T08:40:01.072Z,83.2
2022-09-15T08:41:01.180Z,83
2022-09-15T08:42:00.363Z,81.5
2022-09-15T08:43:00.485Z,80.1
2022-09-15T08:44:00.625Z,80.4
2022-09-15T08:45:00.763Z,81.3
2022-09-15T08:46:01.006Z,81.6
2022-09-15T08:47:01.078Z,83.4
2022-09-15T08:48:01.223Z,83.6
2022-09-15T08:49:02.980Z,83.7
2022-09-15T08:50:00.494Z,84.3
2022-09-15T08:51:00.642Z,84.2
2022-09-15T08:52:00.825Z,83.7
2022-09-15T08:53:00.951Z,84.8
2022-09-15T08:54:01.125Z,84.9
2022-09-15T08:55:01.241Z,83.9
2022-09-15T08:56:00.392Z,84.2
2022-09-15T08:57:00.549Z,84.7
2022-09-15T08:58:00.707Z,84.8
2022-09-15T08:59:00.833Z,84.9
2022-09-15T09:00:00.977Z,84.6
2022-09-15T09:01:01.120Z,84.6
2022-09-15T09:02:00.347Z,84
2022-09-15T09:03:00.492Z,84.6
2022-09-15T09:04:00.584Z,84.7
2022-09-15T09:05:00.734Z,85.3
2022-09-15T09:06:00.881Z,83.9
2022-09-15T09:07:01.035Z,82.2
2022-09-15T09:08:01.190Z,81.3
2022-09-15T09:09:00.332Z,81.3
2022-09-15T09:10:00.484Z,81.2
2022-09-15T09:11:00.636Z,81.3
2022-09-15T09:12:00.773Z,81
2022-09-15T09:13:00.915Z,82
2022-09-15T09:14:01.073Z,81.8
2022-09-15T09:15:01.235Z,82.8
2022-09-15T09:16:00.403Z,82.7
2022-09-15T09:17:00.511Z,83.6
2022-09-15T09:18:00.646Z,84.3
2022-09-15T09:19:00.796Z,84.9
2022-09-15T09:20:00.969Z,85.4
2022-09-15T09:21:01.086Z,83.7
2022-09-15T09:22:01.238Z,82.4
2022-09-15T09:23:00.367Z,81.7
2022-09-15T09:24:00.509Z,82.7
2022-09-15T09:25:05.887Z,83.7
2022-09-15T09:26:00.812Z,82.9
2022-09-15T09:27:00.955Z,83.4
2022-09-15T09:28:01.102Z,84.8
2022-09-15T09:30:00.400Z,85.5
2022-09-15T09:31:00.605Z,85.3
2022-09-15T09:32:00.666Z,84.2
2022-09-15T09:33:00.811Z,84.3
2022-09-15T09:34:00.956Z,83.8
2022-09-15T09:35:01.121Z,85.2
2022-09-15T09:36:01.250Z,86
2022-09-15T09:37:00.395Z,86.2
2022-09-15T09:38:00.555Z,86
2022-09-15T09:39:00.691Z,85.7
2022-09-15T09:40:00.962Z,86.5
2022-09-15T09:41:02.528Z,87
2022-09-15T09:42:01.142Z,87
2022-09-15T09:43:00.287Z,87
2022-09-15T09:44:00.425Z,87.1
2022-09-15T09:45:00.591Z,86.9
2022-09-15T09:46:00.760Z,87.3
2022-09-15T09:47:00.860Z,87.3
2022-09-15T09:48:01.908Z,87.3
2022-09-15T09:49:01.144Z,87.1
2022-09-15T09:50:00.307Z,87.4
2022-09-15T09:51:00.440Z,87.4
2022-09-15T09:52:00.591Z,87.5
2022-09-15T09:53:00.742Z,87.5
2022-09-15T09:54:00.907Z,87.4
2022-09-15T09:55:01.061Z,87.7
2022-09-15T09:56:01.255Z,87.6
2022-09-15T09:57:00.352Z,87.7
2022-09-15T09:58:00.491Z,87.7
2022-09-15T09:59:00.636Z,88.1
2022-09-15T10:00:00.770Z,88.1
2022-09-15T10:01:00.957Z,88.2
2022-09-15T10:02:01.060Z,87.7
2022-09-15T10:03:01.202Z,87.7
2022-09-15T10:04:00.354Z,87.8
2022-09-15T10:05:00.540Z,88.1
2022-09-15T10:06:00.674Z,88.2
2022-09-15T10:07:00.801Z,88.4
2022-09-15T10:08:00.948Z,88.3
2022-09-15T10:09:01.112Z,88.3
2022-09-15T10:10:01.275Z,88.2
2022-09-15T10:11:00.413Z,88.2
2022-09-15T10:12:00.547Z,87.9
2022-09-15T10:13:00.700Z,87.9
2022-09-15T10:14:00.852Z,87.8
2022-09-15T10:15:01.013Z,87.9
2022-09-15T10:16:01.167Z,87.9
2022-09-15T10:17:00.355Z,87.4
2022-09-15T10:18:00.433Z,87.1
2022-09-15T10:19:00.570Z,86.4
2022-09-15T10:20:00.749Z,86.5
2022-09-15T10:21:00.885Z,86.6
2022-09-15T10:22:01.036Z,87.1
2022-09-15T10:23:01.184Z,87.4
2022-09-15T10:24:00.331Z,87.6
2022-09-15T10:25:00.509Z,86.1
2022-09-15T10:26:00.726Z,86.5
2022-09-15T10:27:00.806Z,86.4
2022-09-15T10:28:00.953Z,86.4
2022-09-15T10:29:01.083Z,84.7
2022-09-15T10:30:01.240Z,84.7
2022-09-15T10:31:00.371Z,84.3
2022-09-15T10:32:00.560Z,83.2
2022-09-15T10:33:00.682Z,84
2022-09-15T10:34:00.789Z,83.9
2022-09-15T10:35:00.946Z,84.3
2022-09-15T10:36:01.102Z,84.3
2022-09-15T10:37:01.257Z,84.6
2022-09-15T10:38:00.416Z,84.8
2022-09-15T10:39:00.540Z,84.5
2022-09-15T10:40:00.775Z,84.8
2022-09-15T10:41:00.853Z,85.1
2022-09-15T10:42:00.995Z,84.9
2022-09-15T10:43:01.169Z,84.9
2022-09-15T10:44:00.299Z,84.4
2022-09-15T10:45:00.460Z,84.3
2022-09-15T10:46:00.645Z,84.8
2022-09-15T10:47:00.772Z,83.9
2022-09-15T10:48:00.905Z,83.7
2022-09-15T10:49:01.055Z,84.2
2022-09-15T10:50:01.218Z,83.3
2022-09-15T10:51:00.380Z,81.8
2022-09-15T10:52:00.483Z,81.9
2022-09-15T10:53:00.644Z,82.3
2022-09-15T10:54:00.996Z,82.2
2022-09-15T10:55:00.988Z,81.6
2022-09-15T10:56:01.125Z,81.4
2022-09-15T10:57:01.251Z,81.5
2022-09-15T10:58:00.400Z,82.3
2022-09-15T10:59:00.536Z,82.4
2022-09-15T11:00:00.685Z,81.9
2022-09-15T11:01:00.926Z,81.9
2022-09-15T11:02:01.012Z,83.3
2022-09-15T11:03:01.111Z,82.2
2022-09-15T11:04:01.243Z,82.2
2022-09-15T11:05:00.389Z,83.3
2022-09-15T11:06:00.559Z,81
2022-09-15T11:07:00.687Z,80.3
2022-09-15T11:08:00.831Z,79.9
2022-09-15T11:09:00.983Z,79.2
2022-09-15T11:10:01.137Z,79.6
2022-09-15T11:11:00.301Z,80.2
2022-09-15T11:12:00.426Z,80.4
2022-09-15T11:13:00.572Z,80
2022-09-15T11:14:00.723Z,80.5
2022-09-15T11:15:00.863Z,79.9
2022-09-15T11:16:01.090Z,78.8
2022-09-15T11:17:01.189Z,78.7
2022-09-15T11:18:00.304Z,80.7
2022-09-15T11:19:00.457Z,79.8
2022-09-15T11:20:00.590Z,80.2
2022-09-15T11:21:00.741Z,81.6
2022-09-15T11:22:00.908Z,80.7
2022-09-15T11:23:01.041Z,81.7
2022-09-15T11:24:01.185Z,80.4
2022-09-15T11:25:00.335Z,81.1
2022-09-15T11:26:00.483Z,81.6
2022-09-15T11:27:00.666Z,79.2
2022-09-15T11:28:00.776Z,80.1
2022-09-15T11:29:00.926Z,79.4
2022-09-15T11:30:01.077Z,80.2
2022-09-15T11:31:01.286Z,80.5
2022-09-15T11:32:00.486Z,79.6
2022-09-15T11:33:00.506Z,79.5
2022-09-15T11:34:00.655Z,77.8
2022-09-15T11:35:00.797Z,78.1
2022-09-15T11:36:00.952Z,77.3
2022-09-15T11:37:01.117Z,77.1
2022-09-15T11:38:01.245Z,77.6
2022-09-15T11:39:00.397Z,78.3
2022-09-15T11:40:00.594Z,78.9
2022-09-15T11:41:00.691Z,79.9
2022-09-15T11:42:00.862Z,81
2022-09-15T11:43:00.980Z,81.3
2022-09-15T11:44:01.142Z,80.9
2022-09-15T11:45:00.299Z,80.6
2022-09-15T11:46:00.439Z,80.7
2022-09-15T11:47:00.619Z,81
2022-09-15T11:48:00.743Z,80.3
2022-09-15T11:49:00.897Z,79.7
2022-09-15T11:50:01.039Z,77.2
2022-09-15T11:51:01.191Z,78.4
2022-09-15T11:52:00.345Z,78.5
2022-09-15T11:53:00.478Z,79.8
2022-09-15T11:54:00.622Z,78.9
2022-09-15T11:55:00.776Z,77.9
2022-09-15T11:56:00.914Z,78.9
2022-09-15T11:57:01.086Z,77.9
2022-09-15T11:58:01.198Z,78.4
2022-09-15T11:59:00.350Z,79
2022-09-15T12:00:00.497Z,79.3
2022-09-15T12:01:00.645Z,78.5
2022-09-15T12:02:00.867Z,77.9
2022-09-15T12:03:01.022Z,75.7
2022-09-15T12:04:01.077Z,76.4
2022-09-15T12:05:01.228Z,76.1
2022-09-15T12:06:00.373Z,76.9
2022-09-15T12:08:00.676Z,75.1
2022-09-15T12:09:00.858Z,75.3
2022-09-15T12:10:00.979Z,76
2022-09-15T12:11:01.131Z,76.2
2022-09-15T12:12:00.291Z,77
2022-09-15T12:13:00.443Z,75.6
2022-09-15T12:14:00.560Z,77.4
2022-09-15T12:15:00.711Z,77.1
2022-09-15T12:16:00.898Z,77.1
2022-09-15T12:17:01.006Z,76.7
2022-09-15T12:18:06.479Z,76.7
2022-09-15T12:19:00.312Z,77
2022-09-15T12:20:00.443Z,76.3
2022-09-15T12:21:00.606Z,75.8
2022-09-15T12:22:00.748Z,76.2
2022-09-15T12:23:00.889Z,76.7
2022-09-15T12:24:01.050Z,76.3
2022-09-15T12:25:01.474Z,77
2022-09-15T12:26:00.320Z,75.7
2022-09-15T12:27:00.472Z,77.7
2022-09-15T12:28:00.617Z,76.3
2022-09-15T12:29:00.770Z,76.8
2022-09-15T12:30:00.922Z,76
2022-09-15T12:31:01.140Z,76.7
2022-09-15T12:32:01.201Z,75.9
2022-09-15T12:33:00.342Z,76.2
2022-09-15T12:34:00.496Z,76.7
2022-09-15T12:35:00.669Z,76.8
2022-09-15T12:36:00.784Z,76.6
2022-09-15T12:37:00.988Z,78.3
2022-09-15T12:38:01.077Z,79
2022-09-15T12:39:01.217Z,78.1
2022-09-15T12:40:00.418Z,78.3
2022-09-15T12:41:00.523Z,77.8
2022-09-15T12:42:00.661Z,78.6
2022-09-15T12:43:00.816Z,76.3
2022-09-15T12:44:00.972Z,77.9
2022-09-15T12:45:01.102Z,77.1
2022-09-15T12:46:01.297Z,77.8
2022-09-15T12:47:00.386Z,77.4
2022-09-15T12:48:00.537Z,76.8
2022-09-15T12:49:00.703Z,76.3
2022-09-15T12:50:00.825Z,75.8
2022-09-15T12:51:00.989Z,77.4
2022-09-15T12:52:01.165Z,75.4
2022-09-15T12:53:00.293Z,76.4
2022-09-15T12:54:00.435Z,77.7
2022-09-15T12:55:00.581Z,76.1
2022-09-15T12:56:00.719Z,77.3
2022-09-15T12:57:00.887Z,77.8
2022-09-15T12:58:01.027Z,78.2
2022-09-15T12:59:04.555Z,76.4
2022-09-15T13:00:00.342Z,76.2
2022-09-15T13:01:17.704Z,76.4
2022-09-15T13:02:00.684Z,76.8
2022-09-15T13:03:00.832Z,77.1
2022-09-15T13:04:00.905Z,77.9
2022-09-15T13:05:01.074Z,77.6
2022-09-15T13:06:01.185Z,77.2
2022-09-15T13:07:00.343Z,77.4
2022-09-15T13:08:00.482Z,77.9
2022-09-15T13:09:00.631Z,76.2
2022-09-15T13:10:00.802Z,76
2022-09-15T13:11:00.920Z,76.6
2022-09-15T13:12:01.083Z,76.2
2022-09-15T13:13:01.212Z,76.8
2022-09-15T13:14:00.356Z,77.2
2022-09-15T13:15:00.516Z,77.8
2022-09-15T13:16:00.676Z,77.5
2022-09-15T13:17:00.787Z,78.3
2022-09-15T13:18:00.933Z,77.3
2022-09-15T13:19:01.099Z,78.5
2022-09-15T13:20:01.223Z,78.7
2022-09-15T13:21:00.377Z,79.2
2022-09-15T13:22:00.496Z,78.5
2022-09-15T13:23:00.761Z,78
2022-09-15T13:24:00.826Z,77.6